createdAt,value
2023-04-01T00:00:25.960Z,11.39
2023-04-01T00:01:26.774Z,11.40
2023-04-01T00:02:25.891Z,11.41
2023-04-01T00:03:26.036Z,11.43
2023-04-01T00:04:25.805Z,11.45
2023-04-01T00:05:25.767Z,11.47
2023-04-01T00:06:26.721Z,11.48
2023-04-01T00:07:25.765Z,11.49
2023-04-01T00:08:27.249Z,11.49
2023-04-01T00:09:25.762Z,11.49
2023-04-01T00:10:25.755Z,11.49
2023-04-01T00:11:26.661Z,11.49
2023-04-01T00:12:25.718Z,11.50
2023-04-01T00:13:25.699Z,11.51
2023-04-01T00:14:25.670Z,11.52
2023-04-01T00:15:25.633Z,11.54
2023-04-01T00:16:26.592Z,11.56
2023-04-01T00:17:25.644Z,11.58
2023-04-01T00:18:25.609Z,11.60
2023-04-01T00:19:25.608Z,11.63
2023-04-01T00:20:25.648Z,11.65
2023-04-01T00:21:26.537Z,11.68
2023-04-01T00:22:25.545Z,11.70
2023-04-01T00:23:25.541Z,11.71
2023-04-01T00:24:25.530Z,11.72
2023-04-01T00:25:25.565Z,11.72
2023-04-01T00:26:25.493Z,11.70
2023-04-01T00:27:26.414Z,11.69
2023-04-01T00:28:25.514Z,11.67
2023-04-01T00:29:25.499Z,11.65
2023-04-01T00:30:25.477Z,11.63
2023-04-01T00:31:25.470Z,11.62
2023-04-01T00:32:26.422Z,11.61
2023-04-01T00:33:25.415Z,11.60
2023-04-01T00:34:25.440Z,11.58
2023-04-01T00:35:25.406Z,11.57
2023-04-01T00:36:25.386Z,11.56
2023-04-01T00:37:26.324Z,11.54
2023-04-01T00:38:25.368Z,11.52
2023-04-01T00:39:25.373Z,11.51
2023-04-01T00:40:25.438Z,11.49
2023-04-01T00:41:25.309Z,11.46
2023-04-01T00:42:26.295Z,11.43
2023-04-01T00:43:25.295Z,11.40
2023-04-01T00:44:25.319Z,11.37
2023-04-01T00:45:25.273Z,11.34
2023-04-01T00:46:25.272Z,11.30
2023-04-01T00:47:26.229Z,11.27
2023-04-01T00:48:25.248Z,11.24
2023-04-01T00:49:25.229Z,11.22
2023-04-01T00:50:25.204Z,11.20
2023-04-01T00:51:25.190Z,11.18
2023-04-01T00:52:26.138Z,11.17
2023-04-01T00:53:25.155Z,11.15
2023-04-01T00:54:25.177Z,11.14
2023-04-01T00:55:25.131Z,11.13
2023-04-01T00:56:25.143Z,11.12
2023-04-01T00:57:25.142Z,11.11
2023-04-01T00:58:26.038Z,11.10
2023-04-01T00:59:25.144Z,11.10
2023-04-01T01:00:25.127Z,11.10
2023-04-01T01:01:25.240Z,11.10
2023-04-01T01:02:25.184Z,11.10
2023-04-01T01:03:25.136Z,11.09
2023-04-01T01:04:26.022Z,11.08
2023-04-01T01:05:25.117Z,11.06
2023-04-01T01:06:25.000Z,11.03
2023-04-01T01:07:24.976Z,11.01
2023-04-01T01:08:24.992Z,10.99
2023-04-01T01:09:24.942Z,10.97
2023-04-01T01:10:25.894Z,10.95
2023-04-01T01:11:25.293Z,10.93
2023-04-01T01:12:24.962Z,10.92
2023-04-01T01:13:24.905Z,10.92
2023-04-01T01:14:24.916Z,10.92
2023-04-01T01:15:24.937Z,10.93
2023-04-01T01:16:25.858Z,10.94
2023-04-01T01:17:24.906Z,10.95
2023-04-01T01:18:24.938Z,10.97
2023-04-01T01:19:24.851Z,10.99
2023-04-01T01:20:26.810Z,11.01
2023-04-01T01:21:25.776Z,11.03
2023-04-01T01:22:24.826Z,11.05
2023-04-01T01:23:24.791Z,11.06
2023-04-01T01:24:24.817Z,11.07
2023-04-01T01:25:24.756Z,11.07
2023-04-01T01:26:24.766Z,11.07
2023-04-01T01:27:25.649Z,11.07
2023-04-01T01:28:24.808Z,11.06
2023-04-01T01:29:24.684Z,11.05
2023-04-01T01:30:24.740Z,11.06
2023-04-01T01:31:24.744Z,11.06
2023-04-01T01:32:25.830Z,11.06
2023-04-01T01:33:24.667Z,11.07
2023-04-01T01:34:24.786Z,11.07
2023-04-01T01:35:24.633Z,11.08
2023-04-01T01:36:24.635Z,11.09
2023-04-01T01:37:25.629Z,11.10
2023-04-01T01:38:24.570Z,11.11
2023-04-01T01:39:24.606Z,11.12
2023-04-01T01:40:24.567Z,11.13
2023-04-01T01:41:24.594Z,11.14
2023-04-01T01:42:24.554Z,11.15
2023-04-01T01:43:25.465Z,11.17
2023-04-01T01:44:24.550Z,11.19
2023-04-01T01:45:24.496Z,11.21
2023-04-01T01:46:24.550Z,11.23
2023-04-01T01:47:24.563Z,11.24
2023-04-01T01:48:24.471Z,11.26
2023-04-01T01:49:25.430Z,11.26
2023-04-01T01:50:24.599Z,11.26
2023-04-01T01:51:24.486Z,11.26
2023-04-01T01:52:24.470Z,11.25
2023-04-01T01:53:24.434Z,11.24
2023-04-01T01:54:24.433Z,11.22
2023-04-01T01:55:25.509Z,11.21
2023-04-01T01:56:24.391Z,11.20
2023-04-01T01:57:24.408Z,11.19
2023-04-01T01:58:24.449Z,11.19
2023-04-01T01:59:24.391Z,11.18
2023-04-01T02:00:25.404Z,11.18
2023-04-01T02:01:24.344Z,11.18
2023-04-01T02:02:24.390Z,11.18
2023-04-01T02:03:24.287Z,11.18
2023-04-01T02:04:24.399Z,11.18
2023-04-01T02:05:24.251Z,11.18
2023-04-01T02:06:25.177Z,11.19
2023-04-01T02:07:24.239Z,11.19
2023-04-01T02:08:24.246Z,11.20
2023-04-01T02:09:24.193Z,11.21
2023-04-01T02:10:24.197Z,11.23
2023-04-01T02:11:24.184Z,11.26
2023-04-01T02:12:25.095Z,11.29
2023-04-01T02:13:24.199Z,11.31
2023-04-01T02:14:24.145Z,11.34
2023-04-01T02:15:24.110Z,11.36
2023-04-01T02:16:24.207Z,11.39
2023-04-01T02:17:24.213Z,11.41
2023-04-01T02:18:25.036Z,11.43
2023-04-01T02:19:24.084Z,11.44
2023-04-01T02:20:25.014Z,11.46
2023-04-01T02:21:24.108Z,11.48
2023-04-01T02:22:24.072Z,11.50
2023-04-01T02:23:24.933Z,11.51
2023-04-01T02:24:24.056Z,11.53
2023-04-01T02:25:24.025Z,11.53
2023-04-01T02:26:23.968Z,11.54
2023-04-01T02:27:24.011Z,11.55
2023-04-01T02:28:23.993Z,11.55
2023-04-01T02:29:24.920Z,11.56
2023-04-01T02:30:23.945Z,11.57
2023-04-01T02:31:24.000Z,11.58
2023-04-01T02:32:23.947Z,11.59
2023-04-01T02:33:23.937Z,11.60
2023-04-01T02:34:24.848Z,11.62
2023-04-01T02:35:23.878Z,11.64
2023-04-01T02:36:23.917Z,11.65
2023-04-01T02:37:23.887Z,11.67
2023-04-01T02:38:23.827Z,11.69
2023-04-01T02:39:24.734Z,11.72
2023-04-01T02:40:23.881Z,11.74
2023-04-01T02:41:24.801Z,11.76
2023-04-01T02:42:23.754Z,11.78
2023-04-01T02:43:23.771Z,11.79
2023-04-01T02:44:24.713Z,11.80
2023-04-01T02:45:23.756Z,11.81
2023-04-01T02:46:23.839Z,11.81
2023-04-01T02:47:23.786Z,11.81
2023-04-01T02:48:23.742Z,11.81
2023-04-01T02:49:25.604Z,11.81
2023-04-01T02:50:23.686Z,11.81
2023-04-01T02:51:23.663Z,11.81
2023-04-01T02:52:23.665Z,11.82
2023-04-01T02:53:23.637Z,11.81
2023-04-01T02:54:23.657Z,11.81
2023-04-01T02:55:24.617Z,11.80
2023-04-01T02:56:23.647Z,11.79
2023-04-01T02:57:24.638Z,11.79
2023-04-01T02:58:23.602Z,11.79
2023-04-01T02:59:23.560Z,11.79
2023-04-01T03:00:23.553Z,11.78
2023-04-01T03:01:24.495Z,11.78
2023-04-01T03:02:23.620Z,11.77
2023-04-01T03:03:23.565Z,11.76
2023-04-01T03:04:23.508Z,11.75
2023-04-01T03:05:23.494Z,11.73
2023-04-01T03:06:24.414Z,11.71
2023-04-01T03:07:23.509Z,11.70
2023-04-01T03:08:23.491Z,11.68
2023-04-01T03:09:23.449Z,11.67
2023-04-01T03:10:23.449Z,11.66
2023-04-01T03:11:24.341Z,11.65
2023-04-01T03:12:24.420Z,11.65
2023-04-01T03:13:23.378Z,11.64
2023-04-01T03:14:23.377Z,11.64
2023-04-01T03:15:23.358Z,11.65
2023-04-01T03:16:24.321Z,11.66
2023-04-01T03:17:23.391Z,11.66
2023-04-01T03:18:23.340Z,11.66
2023-04-01T03:19:23.312Z,11.66
2023-04-01T03:20:23.302Z,11.65
2023-04-01T03:21:25.162Z,11.65
2023-04-01T03:22:24.253Z,11.65
2023-04-01T03:23:23.266Z,11.65
2023-04-01T03:24:23.237Z,11.65
2023-04-01T03:25:23.308Z,11.65
2023-04-01T03:26:24.156Z,11.65
2023-04-01T03:27:23.220Z,11.66
2023-04-01T03:28:23.203Z,11.67
2023-04-01T03:29:23.192Z,11.68
2023-04-01T03:30:23.233Z,11.68
2023-04-01T03:31:24.206Z,11.69
2023-04-01T03:32:23.184Z,11.68
2023-04-01T03:33:23.130Z,11.68
2023-04-01T03:34:23.112Z,11.67
2023-04-01T03:35:23.118Z,11.66
2023-04-01T03:36:23.170Z,11.64
2023-04-01T03:37:23.995Z,11.62
2023-04-01T03:38:23.077Z,11.61
2023-04-01T03:39:23.079Z,11.61
2023-04-01T03:40:23.040Z,11.61
2023-04-01T03:41:23.030Z,11.61
2023-04-01T03:42:23.942Z,11.60
2023-04-01T03:43:23.024Z,11.60
2023-04-01T03:44:23.010Z,11.59
2023-04-01T03:45:23.002Z,11.59
2023-04-01T03:46:23.073Z,11.59
2023-04-01T03:47:22.974Z,11.59
2023-04-01T03:48:23.876Z,11.59
2023-04-01T03:49:22.955Z,11.59
2023-04-01T03:50:22.931Z,11.59
2023-04-01T03:51:22.904Z,11.59
2023-04-01T03:52:22.894Z,11.59
2023-04-01T03:53:23.831Z,11.58
2023-04-01T03:54:22.851Z,11.57
2023-04-01T03:55:22.857Z,11.57
2023-04-01T03:56:22.826Z,11.57
2023-04-01T03:57:22.837Z,11.57
2023-04-01T03:58:22.862Z,11.57
2023-04-01T03:59:23.706Z,11.57
2023-04-01T04:00:22.815Z,11.56
2023-04-01T04:01:22.767Z,11.54
2023-04-01T04:02:22.872Z,11.53
2023-04-01T04:03:22.874Z,11.51
2023-04-01T04:04:23.661Z,11.51
2023-04-01T04:05:22.747Z,11.51
2023-04-01T04:06:22.695Z,11.52
2023-04-01T04:07:22.759Z,11.52
2023-04-01T04:08:22.754Z,11.53
2023-04-01T04:09:22.674Z,11.54
2023-04-01T04:10:23.604Z,11.56
2023-04-01T04:11:22.723Z,11.57
2023-04-01T04:12:22.662Z,11.59
2023-04-01T04:13:22.613Z,11.61
2023-04-01T04:14:22.595Z,11.63
2023-04-01T04:15:23.538Z,11.65
2023-04-01T04:16:22.725Z,11.66
2023-04-01T04:17:22.618Z,11.68
2023-04-01T04:18:22.555Z,11.70
2023-04-01T04:19:22.547Z,11.72
2023-04-01T04:20:22.567Z,11.74
2023-04-01T04:21:23.428Z,11.74
2023-04-01T04:22:22.548Z,11.73
2023-04-01T04:23:22.520Z,11.71
2023-04-01T04:24:22.496Z,11.69
2023-04-01T04:25:22.662Z,11.67
2023-04-01T04:26:22.464Z,11.65
2023-04-01T04:27:23.376Z,11.63
2023-04-01T04:28:22.452Z,11.60
2023-04-01T04:29:22.492Z,11.58
2023-04-01T04:30:22.437Z,11.56
2023-04-01T04:31:22.419Z,11.55
2023-04-01T04:32:23.376Z,11.54
2023-04-01T04:33:22.368Z,11.52
2023-04-01T04:34:22.379Z,11.50
2023-04-01T04:35:22.364Z,11.47
2023-04-01T04:36:22.364Z,11.44
2023-04-01T04:37:22.317Z,11.41
2023-04-01T04:38:23.241Z,11.39
2023-04-01T04:39:22.305Z,11.37
2023-04-01T04:40:22.265Z,11.35
2023-04-01T04:41:22.265Z,11.34
2023-04-01T04:42:22.243Z,11.33
2023-04-01T04:43:22.264Z,11.32
2023-04-01T04:44:23.188Z,11.32
2023-04-01T04:45:22.231Z,11.31
2023-04-01T04:46:22.234Z,11.31
2023-04-01T04:47:22.233Z,11.32
2023-04-01T04:48:22.182Z,11.32
2023-04-01T04:49:22.168Z,11.32
2023-04-01T04:50:23.127Z,11.33
2023-04-01T04:51:22.176Z,11.33
2023-04-01T04:52:22.137Z,11.33
2023-04-01T04:53:22.138Z,11.33
2023-04-01T04:54:22.121Z,11.33
2023-04-01T04:55:22.098Z,11.32
2023-04-01T04:56:23.039Z,11.32
2023-04-01T04:57:22.142Z,11.33
2023-04-01T04:58:22.075Z,11.33
2023-04-01T04:59:22.036Z,11.33
2023-04-01T05:00:22.048Z,11.34
2023-04-01T05:01:22.960Z,11.35
2023-04-01T05:02:22.109Z,11.37
2023-04-01T05:04:04.735Z,12.54
2023-04-01T05:05:04.766Z,12.09
2023-04-01T05:06:04.749Z,11.78
2023-04-01T05:07:05.641Z,11.61
2023-04-01T05:08:04.732Z,11.51
2023-04-01T05:09:04.697Z,11.46
2023-04-01T05:10:04.679Z,11.43
2023-04-01T05:11:04.941Z,11.42
2023-04-01T05:12:05.588Z,11.43
2023-04-01T05:13:04.662Z,11.45
2023-04-01T05:14:04.611Z,11.47
2023-04-01T05:15:04.662Z,11.51
2023-04-01T05:16:04.643Z,11.54
2023-04-01T05:17:04.706Z,11.58
2023-04-01T05:18:05.601Z,11.61
2023-04-01T05:19:04.555Z,11.65
2023-04-01T05:20:04.558Z,11.69
2023-04-01T05:21:04.514Z,11.73
2023-04-01T05:22:04.563Z,11.77
2023-04-01T05:23:05.449Z,11.81
2023-04-01T05:24:04.488Z,11.85
2023-04-01T05:25:04.614Z,11.89
2023-04-01T05:26:04.441Z,11.94
2023-04-01T05:27:04.442Z,11.98
2023-04-01T05:28:04.472Z,12.02
2023-04-01T05:29:05.399Z,12.06
2023-04-01T05:30:04.411Z,12.09
2023-04-01T05:31:04.418Z,12.11
2023-04-01T05:32:04.446Z,12.13
2023-04-01T05:33:04.419Z,12.14
2023-04-01T05:34:05.362Z,12.15
2023-04-01T05:35:04.353Z,12.15
2023-04-01T05:36:04.467Z,12.16
2023-04-01T05:37:04.423Z,12.16
2023-04-01T05:38:04.326Z,12.16
2023-04-01T05:39:05.205Z,12.17
2023-04-01T05:40:04.275Z,12.19
2023-04-01T05:41:04.287Z,12.20
2023-04-01T05:42:04.302Z,12.22
2023-04-01T05:43:04.268Z,12.24
2023-04-01T05:44:04.268Z,12.26
2023-04-01T05:45:05.161Z,12.28
2023-04-01T05:46:04.234Z,12.30
2023-04-01T05:47:04.223Z,12.32
2023-04-01T05:48:04.251Z,12.34
2023-04-01T05:49:04.183Z,12.36
2023-04-01T05:50:04.159Z,12.39
2023-04-01T05:51:05.085Z,12.41
2023-04-01T05:52:04.113Z,12.43
2023-04-01T05:53:04.136Z,12.44
2023-04-01T05:54:04.111Z,12.44
2023-04-01T05:55:04.084Z,12.44
2023-04-01T05:56:04.102Z,12.43
2023-04-01T05:57:05.008Z,12.42
2023-04-01T05:58:04.092Z,12.42
2023-04-01T05:59:04.058Z,12.41
2023-04-01T06:00:04.132Z,12.41
2023-04-01T06:01:10.395Z,12.41
2023-04-01T06:02:06.462Z,12.40
2023-04-01T06:03:04.152Z,12.39
2023-04-01T06:04:04.122Z,12.38
2023-04-01T06:05:03.960Z,12.36
2023-04-01T06:06:03.958Z,12.34
2023-04-01T06:07:03.959Z,12.33
2023-04-01T06:08:04.919Z,12.32
2023-04-01T06:09:03.908Z,12.31
2023-04-01T06:10:03.913Z,12.31
2023-04-01T06:11:03.882Z,12.30
2023-04-01T06:12:03.881Z,12.28
2023-04-01T06:13:04.768Z,12.26
2023-04-01T06:14:03.851Z,12.25
2023-04-01T06:15:03.832Z,12.23
2023-04-01T06:16:03.932Z,12.23
2023-04-01T06:17:03.828Z,12.24
2023-04-01T06:18:04.768Z,12.24
2023-04-01T06:19:03.767Z,12.25
2023-04-01T06:20:03.810Z,12.25
2023-04-01T06:21:03.763Z,12.25
2023-04-01T06:22:03.779Z,12.25
2023-04-01T06:23:04.652Z,12.24
2023-04-01T06:24:03.778Z,12.23
2023-04-01T06:25:03.753Z,12.21
2023-04-01T06:26:03.685Z,12.20
2023-04-01T06:27:03.684Z,12.18
2023-04-01T06:28:04.562Z,12.17
2023-04-01T06:29:04.682Z,12.16
2023-04-01T06:30:03.660Z,12.16
2023-04-01T06:31:03.668Z,12.16
2023-04-01T06:32:03.627Z,12.17
2023-04-01T06:33:03.640Z,12.18
2023-04-01T06:34:03.585Z,12.20
2023-04-01T06:35:04.509Z,12.22
2023-04-01T06:36:03.576Z,12.25
2023-04-01T06:37:03.552Z,12.28
2023-04-01T06:38:03.584Z,12.31
2023-04-01T06:39:03.538Z,12.33
2023-04-01T06:40:04.456Z,12.35
2023-04-01T06:41:03.507Z,12.37
2023-04-01T06:42:03.498Z,12.38
2023-04-01T06:43:03.540Z,12.40
2023-04-01T06:44:03.490Z,12.43
2023-04-01T06:45:03.476Z,12.47
2023-04-01T06:46:04.367Z,12.50
2023-04-01T06:47:03.408Z,12.54
2023-04-01T06:48:03.463Z,12.59
2023-04-01T06:49:03.473Z,12.62
2023-04-01T06:50:03.374Z,12.65
2023-04-01T06:51:03.407Z,12.69
2023-04-01T06:52:04.291Z,12.72
2023-04-01T06:53:04.312Z,12.76
2023-04-01T06:54:03.421Z,12.82
2023-04-01T06:55:03.383Z,12.87
2023-04-01T06:56:03.312Z,12.92
2023-04-01T06:57:04.297Z,12.97
2023-04-01T06:58:04.274Z,13.03
2023-04-01T06:59:03.377Z,13.09
2023-04-01T07:00:03.264Z,13.16
2023-04-01T07:01:03.325Z,13.24
2023-04-01T07:02:03.244Z,13.31
2023-04-01T07:03:06.242Z,13.38
2023-04-01T07:04:03.251Z,13.45
2023-04-01T07:05:03.286Z,13.53
2023-04-01T07:06:03.196Z,13.61
2023-04-01T07:07:03.196Z,13.70
2023-04-01T07:08:04.028Z,13.79
2023-04-01T07:09:05.928Z,13.89
2023-04-01T07:10:03.176Z,13.98
2023-04-01T07:11:03.136Z,14.07
2023-04-01T07:12:03.093Z,14.16
2023-04-01T07:13:03.113Z,14.24
2023-04-01T07:14:03.089Z,14.33
2023-04-01T07:15:04.083Z,14.41
2023-04-01T07:16:03.123Z,14.49
2023-04-01T07:17:03.102Z,14.57
2023-04-01T07:18:04.114Z,14.66
2023-04-01T07:19:03.024Z,14.74
2023-04-01T07:20:03.040Z,14.82
2023-04-01T07:21:03.918Z,14.90
2023-04-01T07:22:03.141Z,14.98
2023-04-01T07:23:02.955Z,15.06
2023-04-01T07:24:02.955Z,15.13
2023-04-01T07:25:03.930Z,15.18
2023-04-01T07:26:03.860Z,15.21
2023-04-01T07:27:02.961Z,15.24
2023-04-01T07:28:02.880Z,15.26
2023-04-01T07:29:02.902Z,15.29
2023-04-01T07:30:02.883Z,15.30
2023-04-01T07:31:03.909Z,15.32
2023-04-01T07:32:02.846Z,15.36
2023-04-01T07:33:02.899Z,15.40
2023-04-01T07:34:02.853Z,15.47
2023-04-01T07:35:02.844Z,15.54
2023-04-01T07:36:02.894Z,15.63
2023-04-01T07:37:03.762Z,15.73
2023-04-01T07:38:02.794Z,15.83
2023-04-01T07:39:02.783Z,15.93
2023-04-01T07:40:03.637Z,16.03
2023-04-01T07:41:02.806Z,16.12
2023-04-01T07:42:02.722Z,16.20
2023-04-01T07:43:03.694Z,16.26
2023-04-01T07:44:03.691Z,16.31
2023-04-01T07:45:02.764Z,16.35
2023-04-01T07:46:02.823Z,16.39
2023-04-01T07:47:02.675Z,16.43
2023-04-01T07:48:02.667Z,16.48
2023-04-01T07:49:03.706Z,16.53
2023-04-01T07:50:02.625Z,16.57
2023-04-01T07:51:02.666Z,16.60
2023-04-01T07:52:02.598Z,16.59
2023-04-01T07:53:02.614Z,16.55
2023-04-01T07:54:02.586Z,16.48
2023-04-01T07:55:03.538Z,16.41
2023-04-01T07:56:02.578Z,16.32
2023-04-01T07:57:02.583Z,16.24
2023-04-01T07:58:02.537Z,16.17
2023-04-01T07:59:02.527Z,16.08
2023-04-01T08:00:02.483Z,16.00
2023-04-01T08:01:04.408Z,15.94
2023-04-01T08:02:03.463Z,15.90
2023-04-01T08:03:02.584Z,15.89
2023-04-01T08:04:02.580Z,15.91
2023-04-01T08:05:02.468Z,15.95
2023-04-01T08:06:02.428Z,15.99
2023-04-01T08:07:03.338Z,16.01
2023-04-01T08:08:02.404Z,16.02
2023-04-01T08:09:02.359Z,16.01
2023-04-01T08:10:02.399Z,15.98
2023-04-01T08:11:02.407Z,15.96
2023-04-01T08:12:03.268Z,15.96
2023-04-01T08:13:02.349Z,15.96
2023-04-01T08:14:02.346Z,15.97
2023-04-01T08:15:02.389Z,15.96
2023-04-01T08:16:02.305Z,15.94
2023-04-01T08:17:03.221Z,15.91
2023-04-01T08:18:02.386Z,15.86
2023-04-01T08:19:02.247Z,15.81
2023-04-01T08:20:02.261Z,15.76
2023-04-01T08:21:02.251Z,15.71
2023-04-01T08:22:03.152Z,15.65
2023-04-01T08:23:02.235Z,15.60
2023-04-01T08:24:02.171Z,15.56
2023-04-01T08:25:02.166Z,15.52
2023-04-01T08:26:02.158Z,15.48
2023-04-01T08:27:03.102Z,15.45
2023-04-01T08:28:02.121Z,15.43
2023-04-01T08:29:02.133Z,15.41
2023-04-01T08:30:02.109Z,15.41
2023-04-01T08:31:02.099Z,15.43
2023-04-01T08:32:03.085Z,15.45
2023-04-01T08:33:02.129Z,15.48
2023-04-01T08:34:02.073Z,15.50
2023-04-01T08:35:02.086Z,15.51
2023-04-01T08:36:02.027Z,15.50
2023-04-01T08:37:02.022Z,15.48
2023-04-01T08:38:03.011Z,15.47
2023-04-01T08:39:01.971Z,15.46
2023-04-01T08:40:01.992Z,15.44
2023-04-01T08:41:02.009Z,15.42
2023-04-01T08:42:01.974Z,15.41
2023-04-01T08:43:02.888Z,15.40
2023-04-01T08:44:01.977Z,15.39
2023-04-01T08:45:01.897Z,15.38
2023-04-01T08:46:01.886Z,15.37
2023-04-01T08:47:02.797Z,15.36
2023-04-01T08:48:02.922Z,15.35
2023-04-01T08:49:01.931Z,15.32
2023-04-01T08:50:01.854Z,15.30
2023-04-01T08:51:01.827Z,15.27
2023-04-01T08:52:01.826Z,15.25
2023-04-01T08:53:02.772Z,15.23
2023-04-01T08:54:01.792Z,15.20
2023-04-01T08:55:01.811Z,15.18
2023-04-01T08:56:01.791Z,15.16
2023-04-01T08:57:01.828Z,15.16
2023-04-01T08:58:02.717Z,15.16
2023-04-01T08:59:01.719Z,15.16
2023-04-01T09:00:01.743Z,15.19
2023-04-01T09:01:01.717Z,15.21
2023-04-01T09:02:01.756Z,15.24
2023-04-01T09:03:02.705Z,15.26
2023-04-01T09:04:01.845Z,15.30
2023-04-01T09:05:01.662Z,15.34
2023-04-01T09:06:01.665Z,15.39
2023-04-01T09:07:01.624Z,15.45
2023-04-01T09:08:01.632Z,15.50
2023-04-01T09:09:03.072Z,15.55
2023-04-01T09:10:01.808Z,15.60
2023-04-01T09:11:01.686Z,15.66
2023-04-01T09:12:01.974Z,15.72
2023-04-01T09:13:01.857Z,15.78
2023-04-01T09:14:02.483Z,15.83
2023-04-01T09:15:01.536Z,15.87
2023-04-01T09:16:01.935Z,15.92
2023-04-01T09:17:04.638Z,15.97
2023-04-01T09:18:01.538Z,16.02
2023-04-01T09:19:01.460Z,16.08
2023-04-01T09:20:02.474Z,16.13
2023-04-01T09:21:01.467Z,16.18
2023-04-01T09:22:01.424Z,16.25
2023-04-01T09:23:01.434Z,16.31
2023-04-01T09:24:01.386Z,16.36
2023-04-01T09:25:02.362Z,16.39
2023-04-01T09:26:02.283Z,16.41
2023-04-01T09:27:01.369Z,16.41
2023-04-01T09:28:01.375Z,16.42
2023-04-01T09:29:01.336Z,16.42
2023-04-01T09:30:01.390Z,16.41
2023-04-01T09:31:02.288Z,16.40
2023-04-01T09:32:01.306Z,16.37
2023-04-01T09:33:02.322Z,16.33
2023-04-01T09:34:01.302Z,16.28
2023-04-01T09:35:01.322Z,16.24
2023-04-01T09:36:02.221Z,16.20
2023-04-01T09:37:01.578Z,16.17
2023-04-01T09:38:01.360Z,16.15
2023-04-01T09:39:01.297Z,16.13
2023-04-01T09:40:01.369Z,16.12
2023-04-01T09:41:01.206Z,16.12
2023-04-01T09:42:02.105Z,16.11
2023-04-01T09:43:01.177Z,16.11
2023-04-01T09:44:01.130Z,16.12
2023-04-01T09:45:01.187Z,16.13
2023-04-01T09:46:01.108Z,16.16
2023-04-01T09:47:02.067Z,16.20
2023-04-01T09:48:01.175Z,16.23
2023-04-01T09:49:01.116Z,16.25
2023-04-01T09:50:01.099Z,16.25
2023-04-01T09:51:01.051Z,16.24
2023-04-01T09:52:01.984Z,16.22
2023-04-01T09:53:01.019Z,16.22
2023-04-01T09:54:01.020Z,16.22
2023-04-01T09:55:01.009Z,16.21
2023-04-01T09:56:00.962Z,16.19
2023-04-01T09:57:01.949Z,16.16
2023-04-01T09:58:00.964Z,16.13
2023-04-01T09:59:00.953Z,16.11
2023-04-01T10:00:00.977Z,16.10
2023-04-01T10:01:00.961Z,16.12
2023-04-01T10:02:00.928Z,16.15
2023-04-01T10:03:01.986Z,16.16
2023-04-01T10:04:00.864Z,16.16
2023-04-01T10:05:00.945Z,16.16
2023-04-01T10:06:01.894Z,16.16
2023-04-01T10:07:00.867Z,16.16
2023-04-01T10:08:01.739Z,16.14
2023-04-01T10:09:00.827Z,16.11
2023-04-01T10:10:00.812Z,16.08
2023-04-01T10:11:00.801Z,16.05
2023-04-01T10:12:00.751Z,16.03
2023-04-01T10:13:00.774Z,16.01
2023-04-01T10:14:01.703Z,15.99
2023-04-01T10:15:00.745Z,15.98
2023-04-01T10:16:00.725Z,15.98
2023-04-01T10:17:00.725Z,15.98
2023-04-01T10:18:00.728Z,15.97
2023-04-01T10:19:00.716Z,15.98
2023-04-01T10:20:01.639Z,15.98
2023-04-01T10:21:00.686Z,16.00
2023-04-01T10:22:00.699Z,16.04
2023-04-01T10:23:00.648Z,16.10
2023-04-01T10:24:00.606Z,16.17
2023-04-01T10:25:02.312Z,16.23
2023-04-01T10:26:00.582Z,16.28
2023-04-01T10:27:00.636Z,16.33
2023-04-01T10:28:00.583Z,16.37
2023-04-01T10:29:00.546Z,16.41
2023-04-01T10:30:00.554Z,16.45
2023-04-01T10:31:01.431Z,16.47
2023-04-01T10:32:00.582Z,16.48
2023-04-01T10:33:00.533Z,16.47
2023-04-01T10:34:00.508Z,16.47
2023-04-01T10:35:00.539Z,16.46
2023-04-01T10:36:00.542Z,16.46
2023-04-01T10:37:01.434Z,16.45
2023-04-01T10:38:00.445Z,16.44
2023-04-01T10:39:00.458Z,16.43
2023-04-01T10:40:00.433Z,16.42
2023-04-01T10:41:00.370Z,16.41
2023-04-01T10:42:00.375Z,16.42
2023-04-01T10:43:01.320Z,16.43
2023-04-01T10:44:00.388Z,16.46
2023-04-01T10:45:00.330Z,16.48
2023-04-01T10:46:00.332Z,16.49
2023-04-01T10:47:00.310Z,16.51
2023-04-01T10:48:00.358Z,16.52
2023-04-01T10:49:01.235Z,16.51
2023-04-01T10:50:00.258Z,16.49
2023-04-01T10:51:00.235Z,16.45
2023-04-01T10:52:00.253Z,16.43
2023-04-01T10:53:00.224Z,16.42
2023-04-01T10:54:00.220Z,16.41
2023-04-01T10:55:01.146Z,16.43
2023-04-01T10:56:01.143Z,16.44
2023-04-01T10:57:01.223Z,16.46
2023-04-01T10:58:00.178Z,16.46
2023-04-01T10:59:00.164Z,16.46
2023-04-01T11:00:01.067Z,16.45
2023-04-01T11:01:00.213Z,16.44
2023-04-01T11:02:10.076Z,16.42
2023-04-01T11:03:02.736Z,16.41
2023-04-01T11:04:59.029Z,17.63
2023-04-01T11:05:59.908Z,17.18
2023-04-01T11:06:58.970Z,16.88
2023-04-01T11:08:06.052Z,16.71
2023-04-01T11:09:00.458Z,16.62
2023-04-01T11:09:58.889Z,16.59
2023-04-01T11:10:59.909Z,16.60
2023-04-01T11:11:59.818Z,16.63
2023-04-01T11:12:58.902Z,16.66
2023-04-01T11:13:58.837Z,16.69
2023-04-01T11:14:58.849Z,16.71
2023-04-01T11:15:59.815Z,16.70
2023-04-01T11:16:58.854Z,16.69
2023-04-01T11:17:58.907Z,16.68
2023-04-01T11:18:59.468Z,16.69
2023-04-01T11:19:58.893Z,16.71
2023-04-01T11:20:58.767Z,16.76
2023-04-01T11:21:59.722Z,16.80
2023-04-01T11:22:58.765Z,16.82
2023-04-01T11:24:05.004Z,16.84
2023-04-01T11:25:00.301Z,16.90
2023-04-01T11:25:59.498Z,16.94
2023-04-01T11:26:59.676Z,16.94
2023-04-01T11:27:58.722Z,16.94
2023-04-01T11:28:58.743Z,16.95
2023-04-01T11:30:00.645Z,16.98
2023-04-01T11:30:58.689Z,17.02
2023-04-01T11:31:58.660Z,17.04
2023-04-01T11:32:59.603Z,17.04
2023-04-01T11:33:58.656Z,17.04
2023-04-01T11:34:58.580Z,17.04
2023-04-01T11:35:58.648Z,17.06
2023-04-01T11:36:58.637Z,17.08
2023-04-01T11:37:58.613Z,17.09
2023-04-01T11:38:59.461Z,17.08
2023-04-01T11:39:58.557Z,17.06
2023-04-01T11:40:58.538Z,17.05
2023-04-01T11:41:58.505Z,17.04
2023-04-01T11:42:58.538Z,17.03
2023-04-01T11:43:59.447Z,17.02
2023-04-01T11:44:58.448Z,17.01
2023-04-01T11:45:58.506Z,17.01
2023-04-01T11:46:58.468Z,17.01
2023-04-01T11:47:58.510Z,17.00
2023-04-01T11:48:58.438Z,16.98
2023-04-01T11:49:59.370Z,16.96
2023-04-01T11:50:58.490Z,16.94
2023-04-01T11:51:58.390Z,16.93
2023-04-01T11:52:58.390Z,16.91
2023-04-01T11:53:58.338Z,16.88
2023-04-01T11:54:59.313Z,16.86
2023-04-01T11:55:58.348Z,16.83
2023-04-01T11:56:58.394Z,16.80
2023-04-01T11:57:58.302Z,16.77
2023-04-01T11:58:58.314Z,16.74
2023-04-01T11:59:58.306Z,16.71
2023-04-01T12:00:59.224Z,16.68
2023-04-01T12:01:58.263Z,16.65
2023-04-01T12:02:58.381Z,16.61
2023-04-01T12:03:58.475Z,16.56
2023-04-01T12:04:58.326Z,16.51
2023-04-01T12:05:59.221Z,16.46
2023-04-01T12:06:58.181Z,16.41
2023-04-01T12:07:58.186Z,16.38
2023-04-01T12:08:58.152Z,16.35
2023-04-01T12:09:58.223Z,16.31
2023-04-01T12:10:58.181Z,16.28
2023-04-01T12:11:59.103Z,16.25
2023-04-01T12:13:01.231Z,16.24
2023-04-01T12:13:58.108Z,16.23
2023-04-01T12:14:58.097Z,16.22
2023-04-01T12:15:58.148Z,16.22
2023-04-01T12:16:58.099Z,16.20
2023-04-01T12:17:59.026Z,16.16
2023-04-01T12:18:58.044Z,16.12
2023-04-01T12:19:58.054Z,16.08
2023-04-01T12:20:58.083Z,16.05
2023-04-01T12:21:57.993Z,16.03
2023-04-01T12:22:57.980Z,16.01
2023-04-01T12:23:58.959Z,15.99
2023-04-01T12:24:57.980Z,15.96
2023-04-01T12:25:57.966Z,15.93
2023-04-01T12:26:57.986Z,15.90
2023-04-01T12:27:57.936Z,15.88
2023-04-01T12:28:58.832Z,15.88
2023-04-01T12:29:57.918Z,15.88
2023-04-01T12:30:57.884Z,15.88
2023-04-01T12:31:57.889Z,15.88
2023-04-01T12:32:57.939Z,15.86
2023-04-01T12:33:57.868Z,15.85
2023-04-01T12:34:58.769Z,15.84
2023-04-01T12:35:57.849Z,15.86
2023-04-01T12:36:57.878Z,15.87
2023-04-01T12:37:57.781Z,15.87
2023-04-01T12:38:57.886Z,15.85
2023-04-01T12:39:58.710Z,15.80
2023-04-01T12:40:57.790Z,15.75
2023-04-01T12:41:57.762Z,15.70
2023-04-01T12:42:57.748Z,15.65
2023-04-01T12:43:57.716Z,15.61
2023-04-01T12:44:58.694Z,15.59
2023-04-01T12:45:57.737Z,15.55
2023-04-01T12:46:57.705Z,15.51
2023-04-01T12:47:57.686Z,15.48
2023-04-01T12:48:57.693Z,15.46
2023-04-01T12:49:57.652Z,15.42
2023-04-01T12:50:58.617Z,15.38
2023-04-01T12:51:57.618Z,15.32
2023-04-01T12:52:57.632Z,15.27
2023-04-01T12:53:57.599Z,15.22